Easterwood Field College Station US
ICAO: KCLL
IATA: CLL
Category: Medium
Scheduled Services: Yes

Elevation: 320 ft
TransAlt. 18000 ft.

Airport Communications:
ATIS:126.85
HOUSTON CNTR:120.4
CTAF:118.5
GND:128.7
MONTGOMERY CO RDO:122.2
TWR:118.5
UNICOM:122.95

KCLL Zoom In..

Runways:

(A) RW 04 length 5150 ft width 150 ft
---- / hdg 44

(B) RW 10 length 5158 ft width 150 ft
---- / hdg 103

(C) RW 16 length 7000 ft width 146 ft
---- / hdg 163

(D) RW 22 length 5150 ft width 150 ft
---- / hdg 224

(E) RW 28 length 5158 ft width 150 ft
---- / hdg 283

(F) RW 34 length 7000 ft width 146 ft
ILS 111.70 / hdg 343

Location; KCLL
Day. 26 / Time. 12.55 Zulu
* Altimeter: 29.87
* Temperature: 24° c. 75.2°f.
* Wind from: 190° Speed 06 kn.
Dewpoint: 23° c.
Visibility: 9 Statute Miles.
Clouds: Overcast 900 ft.

KCLL 261255Z 19006KT 9SM OVC009 24/23 A2987 RMK AO2 T02390228


Wind From 190°
Speed 06 kn.

 
 
jpsmedia.com for Web Design SOUNDCLOUD worldairports.se 2018   terms of use